Time;durP1;ratioP1;P1;durP2;ratioP2;P2;SDS_P1;SDS_P2;PMS_P1;PMS_P2;Temp;Humidity;BMP_temperature;BMP_pressure;BME280_temperature;BME280_humidity;BME280_pressure;Samples;Min_cycle;Max_cycle;Signal;HPM_P1;HPM_P2
2022/04/28 00:01:46;;;;;;;13.88;6.20;;;3.90;85.40;;;;;;5092062;28;20039;-71
2022/04/28 00:04:11;;;;;;;12.50;6.70;;;3.80;85.20;;;;;;5102377;28;20039;-71
2022/04/28 00:06:37;;;;;;;11.80;6.70;;;3.80;85.40;;;;;;5101712;28;20028;-71
2022/04/28 00:09:02;;;;;;;15.38;6.95;;;3.80;85.40;;;;;;5080288;28;20038;-71
2022/04/28 00:11:28;;;;;;;11.25;6.63;;;3.70;85.60;;;;;;5108255;28;20031;-71
2022/04/28 00:13:53;;;;;;;13.10;7.80;;;3.70;85.80;;;;;;5108413;28;20061;-71
2022/04/28 00:16:19;;;;;;;12.68;7.50;;;3.60;85.70;;;;;;5104593;28;20069;-71
2022/04/28 00:18:44;;;;;;;21.02;7.88;;;3.60;86.20;;;;;;5109029;28;20050;-71
2022/04/28 00:21:10;;;;;;;16.05;7.57;;;3.60;86.10;;;;;;5103406;28;20032;-71
2022/04/28 00:23:35;;;;;;;17.75;7.57;;;3.60;86.30;;;;;;5109287;28;20070;-71
2022/04/28 00:26:01;;;;;;;17.45;7.72;;;3.50;86.30;;;;;;5107407;28;20531;-71
2022/04/28 00:28:26;;;;;;;16.73;8.07;;;3.40;86.10;;;;;;5110523;28;20031;-71
2022/04/28 00:30:52;;;;;;;19.75;8.07;;;3.50;86.10;;;;;;5090948;28;20040;-71
2022/04/28 00:33:18;;;;;;;22.85;9.23;;;3.40;86.00;;;;;;5101205;28;20112;-71
2022/04/28 00:35:44;;;;;;;16.65;8.68;;;3.40;86.50;;;;;;5109519;28;20035;-71
2022/04/28 00:38:11;;;;;;;15.68;8.43;;;3.40;86.70;;;;;;5104864;28;20058;-71
2022/04/28 00:40:36;;;;;;;15.05;7.57;;;3.40;86.70;;;;;;5082620;28;20020;-71
2022/04/28 00:43:20;;;;;;;16.90;8.25;;;3.30;86.70;;;;;;5108484;28;20043;-71
2022/04/28 00:45:50;;;;;;;17.95;9.20;;;3.30;86.70;;;;;;5104222;28;20076;-71
2022/04/28 00:51:04;;;;;;;18.38;8.13;;;3.20;86.70;;;;;;5098747;28;20043;-71
2022/04/28 00:53:30;;;;;;;16.70;8.60;;;3.10;86.70;;;;;;5111876;28;20035;-71
2022/04/28 00:55:59;;;;;;;18.55;8.35;;;3.10;86.80;;;;;;5108632;28;20019;-71
2022/04/28 00:58:26;;;;;;;21.88;9.50;;;3.10;87.00;;;;;;5107119;28;20617;-71
2022/04/28 01:00:53;;;;;;;17.42;8.82;;;3.10;87.10;;;;;;5091231;28;20034;-71
2022/04/28 01:03:19;;;;;;;20.75;9.23;;;3.10;87.30;;;;;;5105171;28;20036;-71
2022/04/28 01:05:44;;;;;;;19.75;9.60;;;3.00;87.10;;;;;;5101420;28;20034;-71
2022/04/28 01:08:10;;;;;;;15.55;8.45;;;3.00;87.40;;;;;;5086679;28;20036;-71
2022/04/28 01:10:36;;;;;;;25.63;10.15;;;3.00;87.50;;;;;;5102509;28;20027;-71
2022/04/28 01:13:02;;;;;;;19.77;9.95;;;3.00;87.80;;;;;;5108054;28;20073;-71
2022/04/28 01:15:27;;;;;;;25.63;10.35;;;3.00;87.80;;;;;;5081283;28;20023;-71
2022/04/28 01:17:53;;;;;;;17.77;9.65;;;3.00;87.90;;;;;;5108037;28;20371;-71
2022/04/28 01:20:18;;;;;;;22.35;9.90;;;2.90;87.70;;;;;;5105812;28;20059;-71
2022/04/28 01:22:44;;;;;;;18.48;9.75;;;2.90;87.70;;;;;;5102402;28;20039;-71
2022/04/28 01:25:11;;;;;;;18.42;9.57;;;2.90;87.70;;;;;;5093808;28;20059;-71
2022/04/28 01:27:37;;;;;;;19.85;10.02;;;2.90;87.80;;;;;;5109960;28;20113;-71
2022/04/28 01:30:16;;;;;;;21.67;10.35;;;2.80;87.60;;;;;;5105972;28;20428;-71
2022/04/28 01:32:42;;;;;;;19.52;9.60;;;2.80;87.30;;;;;;5096709;28;20028;-71
2022/04/28 01:35:08;;;;;;;18.90;9.32;;;2.70;87.60;;;;;;5110032;28;20542;-71
2022/04/28 01:37:34;;;;;;;19.42;9.73;;;2.70;87.60;;;;;;5103688;28;20089;-71
2022/04/28 01:40:00;;;;;;;16.58;10.63;;;2.70;87.60;;;;;;5107625;28;20054;-71
2022/04/28 01:42:25;;;;;;;24.60;9.98;;;2.60;87.80;;;;;;5104157;28;20127;-71
2022/04/28 01:44:52;;;;;;;19.27;10.07;;;2.60;87.80;;;;;;5110841;28;20464;-71
2022/04/28 01:47:17;;;;;;;21.45;10.57;;;2.60;87.60;;;;;;5095464;28;20036;-71
2022/04/28 01:49:43;;;;;;;20.25;9.65;;;2.60;87.80;;;;;;5098340;28;20042;-71
2022/04/28 01:54:59;;;;;;;19.17;11.05;;;2.50;87.90;;;;;;5107073;28;20053;-71
2022/04/28 01:57:29;;;;;;;22.70;10.60;;;2.50;88.20;;;;;;5099122;28;20036;-71
2022/04/28 01:59:57;;;;;;;26.40;10.65;;;2.50;88.20;;;;;;5101634;28;20024;-71
2022/04/28 02:02:23;;;;;;;20.88;10.93;;;2.50;88.60;;;;;;5088820;28;20035;-71
2022/04/28 02:04:49;;;;;;;20.85;10.27;;;2.40;89.00;;;;;;5106352;28;20097;-71
2022/04/28 02:07:15;;;;;;;30.02;11.13;;;2.30;88.90;;;;;;5108051;28;20085;-71
2022/04/28 02:09:41;;;;;;;23.98;10.05;;;2.30;88.90;;;;;;5109091;28;20674;-71
2022/04/28 02:12:08;;;;;;;22.48;10.00;;;2.30;89.30;;;;;;5104387;28;20035;-71
2022/04/28 02:14:34;;;;;;;25.98;11.07;;;2.30;89.50;;;;;;5105562;28;20031;-71
2022/04/28 02:16:59;;;;;;;22.42;11.25;;;2.20;89.80;;;;;;5104962;28;20028;-71
2022/04/28 02:19:25;;;;;;;22.90;10.85;;;2.20;89.80;;;;;;5102514;28;20032;-71
2022/04/28 02:21:50;;;;;;;22.23;11.15;;;2.10;89.70;;;;;;5107821;28;20070;-71
2022/04/28 02:24:16;;;;;;;17.02;10.55;;;2.10;89.50;;;;;;5084002;28;20036;-71
2022/04/28 02:26:41;;;;;;;22.63;10.02;;;2.10;89.70;;;;;;5105508;28;20023;-71
2022/04/28 02:29:07;;;;;;;20.27;10.65;;;2.10;89.60;;;;;;5105009;28;20031;-71
2022/04/28 02:31:32;;;;;;;24.65;11.35;;;2.00;89.70;;;;;;5100662;28;20020;-71
2022/04/28 02:33:58;;;;;;;20.75;10.77;;;2.00;90.00;;;;;;5107713;28;20044;-71
2022/04/28 02:36:24;;;;;;;19.75;9.73;;;2.00;89.80;;;;;;5109822;28;20039;-71
2022/04/28 02:38:51;;;;;;;18.90;9.77;;;1.90;89.70;;;;;;5102364;28;20042;-71
2022/04/28 02:41:20;;;;;;;22.25;10.90;;;1.90;89.60;;;;;;5106400;28;20497;-71
2022/04/28 02:43:46;;;;;;;23.17;11.15;;;1.90;89.30;;;;;;5104627;28;20032;-71
2022/04/28 02:46:12;;;;;;;15.00;9.68;;;1.80;89.50;;;;;;5096829;28;20398;-71
2022/04/28 02:48:37;;;;;;;19.63;10.63;;;1.80;89.70;;;;;;5100970;28;20068;-71
2022/04/28 02:51:03;;;;;;;17.92;10.20;;;1.70;89.80;;;;;;5110977;28;20032;-71
2022/04/28 02:53:28;;;;;;;26.70;10.68;;;1.70;90.00;;;;;;5091189;28;20032;-71
2022/04/28 02:55:54;;;;;;;25.70;10.70;;;1.70;89.90;;;;;;5098552;28;20103;-71
2022/04/28 02:58:19;;;;;;;19.95;10.63;;;1.70;90.00;;;;;;5096199;28;20055;-71
2022/04/28 03:00:45;;;;;;;26.75;11.10;;;1.70;90.10;;;;;;5110744;28;20419;-71
2022/04/28 03:03:10;;;;;;;17.90;10.07;;;1.70;90.20;;;;;;5097136;28;20411;-71
2022/04/28 03:10:46;;;;;;;19.48;11.32;;;1.60;90.10;;;;;;5098728;28;20383;-71
2022/04/28 03:11:06;;;;;;;21.75;10.77;;;1.50;90.30;;;;;;5107836;28;20038;-71
2022/04/28 03:13:32;;;;;;;18.77;10.98;;;1.50;90.20;;;;;;5098542;28;20024;-71
2022/04/28 03:15:59;;;;;;;20.90;11.13;;;1.50;90.50;;;;;;5102970;28;20113;-71
2022/04/28 03:18:24;;;;;;;27.65;12.05;;;1.50;90.50;;;;;;5106086;28;20058;-71
2022/04/28 03:20:50;;;;;;;23.20;12.05;;;1.50;90.80;;;;;;5105140;28;20086;-71
2022/04/28 03:23:15;;;;;;;23.90;12.38;;;1.40;90.80;;;;;;5101684;28;20538;-71
2022/04/28 03:25:41;;;;;;;24.10;11.88;;;1.40;90.80;;;;;;5100662;28;20051;-71
2022/04/28 03:28:08;;;;;;;21.00;11.35;;;1.30;90.80;;;;;;5100061;28;20457;-71
2022/04/28 03:30:33;;;;;;;29.17;12.38;;;1.30;90.80;;;;;;5081877;28;20470;-71
2022/04/28 03:33:00;;;;;;;21.55;11.77;;;1.30;90.70;;;;;;5106928;28;20032;-71
2022/04/28 03:35:25;;;;;;;25.27;11.48;;;1.20;90.80;;;;;;5098465;28;20099;-71
2022/04/28 03:37:51;;;;;;;23.13;11.70;;;1.20;90.70;;;;;;5106720;28;20114;-71
2022/04/28 03:40:17;;;;;;;23.40;12.07;;;1.20;90.70;;;;;;5105653;28;20427;-71
2022/04/28 03:42:43;;;;;;;23.42;11.63;;;1.20;90.70;;;;;;5102636;28;20051;-71
2022/04/28 03:45:09;;;;;;;23.08;11.18;;;1.20;90.50;;;;;;5091239;28;20032;-71
2022/04/28 03:47:36;;;;;;;20.65;11.88;;;1.20;90.50;;;;;;5102412;28;20051;-71
2022/04/28 03:50:03;;;;;;;32.80;12.48;;;1.20;90.60;;;;;;5108358;28;20067;-71
2022/04/28 03:52:28;;;;;;;22.67;11.65;;;1.10;90.70;;;;;;5109133;28;20042;-71
2022/04/28 03:54:54;;;;;;;23.17;11.68;;;1.00;90.50;;;;;;5089486;28;20470;-71
2022/04/28 03:57:20;;;;;;;25.30;11.68;;;1.00;90.40;;;;;;5094334;28;20161;-71
2022/04/28 03:59:45;;;;;;;25.13;11.48;;;1.00;90.30;;;;;;5092917;28;20020;-71
2022/04/28 04:02:11;;;;;;;22.30;12.10;;;1.10;90.30;;;;;;5102890;28;20044;-71
2022/04/28 04:04:37;;;;;;;22.58;11.52;;;1.00;90.30;;;;;;5084187;28;20501;-71
2022/04/28 04:07:03;;;;;;;20.23;10.60;;;1.00;90.20;;;;;;5102384;28;20409;-70
2022/04/28 04:09:28;;;;;;;22.45;11.23;;;1.10;90.30;;;;;;5093570;28;20928;-70
2022/04/28 04:11:54;;;;;;;22.85;12.13;;;1.10;90.20;;;;;;5085723;28;20070;-70
2022/04/28 04:14:19;;;;;;;23.95;11.60;;;1.10;90.20;;;;;;5108757;28;20049;-71
2022/04/28 04:16:45;;;;;;;20.15;11.25;;;1.10;90.10;;;;;;5106021;28;20032;-71
2022/04/28 04:19:10;;;;;;;20.98;10.98;;;1.10;90.10;;;;;;5112553;28;20079;-69
2022/04/28 04:21:36;;;;;;;27.02;12.50;;;1.10;90.20;;;;;;5111295;28;20035;-69
2022/04/28 04:24:02;;;;;;;27.98;12.27;;;1.20;90.20;;;;;;5111115;28;20050;-69
2022/04/28 04:26:27;;;;;;;26.67;12.95;;;1.40;90.20;;;;;;5108528;28;20042;-69
2022/04/28 04:28:53;;;;;;;23.90;12.07;;;1.60;90.60;;;;;;5101525;28;20032;-70
2022/04/28 04:34:02;;;;;;;26.00;13.85;;;2.10;90.60;;;;;;5109245;28;20493;-70
2022/04/28 04:36:28;;;;;;;29.75;12.85;;;2.20;90.50;;;;;;5108562;28;20549;-71
2022/04/28 04:38:54;;;;;;;28.48;12.63;;;2.40;90.40;;;;;;5110751;28;20038;-70
2022/04/28 04:41:19;;;;;;;29.92;13.63;;;2.60;90.30;;;;;;5103706;28;20059;-71
2022/04/28 04:43:45;;;;;;;24.73;12.93;;;2.80;90.40;;;;;;5104950;28;20043;-72
2022/04/28 04:46:10;;;;;;;31.75;13.88;;;3.00;90.10;;;;;;5105141;28;20023;-73
2022/04/28 04:48:36;;;;;;;21.92;12.48;;;3.00;90.00;;;;;;5103360;28;20359;-73
2022/04/28 04:51:02;;;;;;;20.58;12.52;;;3.10;89.80;;;;;;5111409;28;20040;-72
2022/04/28 04:53:28;;;;;;;27.88;13.13;;;3.20;90.00;;;;;;5111096;28;20110;-73
2022/04/28 04:55:54;;;;;;;17.88;11.48;;;3.40;89.90;;;;;;5103004;28;20110;-73
2022/04/28 04:58:19;;;;;;;21.65;11.55;;;3.30;89.70;;;;;;5100345;28;20367;-73
2022/04/28 05:00:45;;;;;;;25.65;11.95;;;3.40;89.90;;;;;;5080910;28;20024;-73
2022/04/28 05:03:11;;;;;;;20.02;11.30;;;3.60;90.00;;;;;;5109308;28;20035;-73
2022/04/28 05:05:37;;;;;;;24.08;11.30;;;3.60;89.60;;;;;;5104181;28;20478;-73
2022/04/28 05:08:02;;;;;;;22.55;12.30;;;3.80;89.90;;;;;;5091971;28;20100;-72
2022/04/28 05:10:28;;;;;;;18.42;10.88;;;3.90;89.30;;;;;;5107268;28;20088;-73
2022/04/28 05:12:53;;;;;;;20.45;11.30;;;4.00;89.20;;;;;;5079564;28;20439;-73
2022/04/28 05:15:19;;;;;;;23.75;11.02;;;4.00;88.90;;;;;;5097179;28;20031;-74
2022/04/28 05:17:44;;;;;;;16.15;10.43;;;4.00;89.10;;;;;;5101213;28;20032;-72
2022/04/28 05:20:10;;;;;;;20.60;10.07;;;4.10;89.00;;;;;;5079693;28;20326;-73
2022/04/28 05:22:35;;;;;;;21.67;10.88;;;4.10;88.80;;;;;;5095084;28;20039;-70
2022/04/28 05:25:01;;;;;;;21.05;10.63;;;4.20;89.00;;;;;;5104708;28;20386;-70
2022/04/28 05:27:26;;;;;;;21.15;11.25;;;4.40;88.80;;;;;;5111026;28;20023;-70
2022/04/28 05:29:52;;;;;;;15.93;10.07;;;4.40;88.50;;;;;;5101574;28;20122;-70
2022/04/28 05:32:18;;;;;;;18.13;10.15;;;4.50;88.20;;;;;;5110142;28;20035;-70
2022/04/28 05:34:43;;;;;;;25.30;10.43;;;4.60;88.50;;;;;;5106365;28;20539;-70
2022/04/28 05:37:12;;;;;;;16.90;10.25;;;4.80;88.30;;;;;;5103206;28;20092;-70
2022/04/28 05:39:40;;;;;;;20.20;9.15;;;4.90;87.50;;;;;;5108129;28;20036;-70
2022/04/28 05:42:07;;;;;;;18.77;10.88;;;4.90;87.70;;;;;;5107024;28;20058;-70
2022/04/28 05:47:18;;;;;;;18.13;8.70;;;5.30;87.20;;;;;;5101132;28;20031;-70
2022/04/28 05:49:44;;;;;;;16.27;9.55;;;5.20;86.40;;;;;;5103918;28;20023;-70
2022/04/28 05:52:10;;;;;;;17.58;9.07;;;5.20;86.50;;;;;;5110181;28;20044;-70
2022/04/28 05:54:36;;;;;;;31.02;10.07;;;5.40;86.30;;;;;;5106933;28;20115;-70
2022/04/28 05:57:02;;;;;;;16.48;9.15;;;5.40;86.50;;;;;;5105862;28;20543;-70
2022/04/28 05:59:28;;;;;;;19.63;8.68;;;5.50;86.40;;;;;;5104991;28;20070;-70
2022/04/28 06:01:54;;;;;;;16.35;8.70;;;5.60;86.30;;;;;;5093270;28;20039;-70
2022/04/28 06:04:19;;;;;;;12.13;7.60;;;5.60;85.80;;;;;;5092725;28;20085;-70
2022/04/28 06:06:45;;;;;;;17.95;9.43;;;5.60;84.80;;;;;;5091174;28;20051;-70
2022/04/28 06:09:10;;;;;;;21.08;9.32;;;5.80;84.80;;;;;;5091518;28;20456;-70
2022/04/28 06:11:36;;;;;;;17.85;8.60;;;6.00;85.40;;;;;;5100186;28;20032;-70
2022/04/28 06:14:01;;;;;;;16.45;9.30;;;6.20;84.80;;;;;;5104112;28;20073;-70
2022/04/28 06:16:27;;;;;;;19.08;9.32;;;6.40;84.40;;;;;;5110373;28;20122;-70
2022/04/28 06:18:52;;;;;;;24.95;9.63;;;6.50;83.80;;;;;;5106302;28;20038;-70
2022/04/28 06:21:18;;;;;;;12.13;8.25;;;6.70;83.20;;;;;;5103667;28;20526;-70
2022/04/28 06:23:45;;;;;;;19.77;8.45;;;6.80;82.70;;;;;;5098448;28;20047;-70
2022/04/28 06:26:10;;;;;;;20.15;8.00;;;6.70;82.20;;;;;;5091357;28;20454;-70
2022/04/28 06:28:36;;;;;;;19.95;9.13;;;6.80;82.10;;;;;;5091187;28;20020;-70
2022/04/28 06:31:02;;;;;;;18.98;9.15;;;7.10;82.30;;;;;;5091115;28;20031;-70
2022/04/28 06:33:27;;;;;;;17.02;9.07;;;7.10;82.00;;;;;;5090513;28;20080;-70
2022/04/28 06:35:54;;;;;;;15.60;8.38;;;7.10;81.70;;;;;;5098408;28;20035;-70
2022/04/28 06:38:19;;;;;;;12.15;7.43;;;7.30;81.70;;;;;;5109782;28;20081;-70
2022/04/28 06:40:45;;;;;;;12.82;7.70;;;7.50;81.70;;;;;;5091084;28;20052;-70
2022/04/28 06:43:10;;;;;;;15.73;8.13;;;7.60;80.90;;;;;;5097525;28;20436;-70
2022/04/28 06:45:37;;;;;;;12.07;7.38;;;7.70;80.50;;;;;;5107922;28;20062;-70
2022/04/28 06:48:03;;;;;;;12.90;7.68;;;7.90;79.50;;;;;;5092203;28;20390;-70
2022/04/28 06:50:29;;;;;;;18.83;7.38;;;8.00;79.70;;;;;;5110006;28;20032;-70
2022/04/28 06:52:54;;;;;;;13.50;6.63;;;8.10;78.90;;;;;;5109782;28;20110;-70
2022/04/28 06:55:19;;;;;;;13.55;7.53;;;8.10;77.50;;;;;;5101275;28;20050;-70
2022/04/28 06:57:45;;;;;;;12.55;7.13;;;8.30;77.80;;;;;;5093121;28;20020;-70
2022/04/28 07:00:11;;;;;;;13.40;6.72;;;8.40;77.20;;;;;;5111277;28;20059;-71
2022/04/28 07:02:36;;;;;;;15.40;7.05;;;8.40;76.50;;;;;;5106385;28;20044;-70
2022/04/28 07:05:02;;;;;;;17.20;7.28;;;8.40;76.90;;;;;;5101669;28;20490;-70
2022/04/28 07:07:28;;;;;;;11.45;6.50;;;8.80;77.70;;;;;;5090669;28;20073;-70
2022/04/28 07:09:54;;;;;;;13.50;6.75;;;8.90;77.00;;;;;;5095630;28;20439;-70
2022/04/28 07:12:19;;;;;;;14.02;5.53;;;9.10;74.80;;;;;;5095232;28;20028;-70
2022/04/28 07:14:45;;;;;;;12.98;5.28;;;9.50;71.50;;;;;;5109580;28;20036;-70
2022/04/28 07:17:11;;;;;;;14.45;4.55;;;9.90;72.70;;;;;;5108293;28;20084;-70
2022/04/28 07:19:36;;;;;;;11.18;3.90;;;10.10;69.40;;;;;;5105484;28;20040;-70
2022/04/28 07:22:05;;;;;;;7.78;2.97;;;10.00;66.90;;;;;;5104169;28;20048;-71
2022/04/28 07:24:35;;;;;;;11.57;4.70;;;9.80;66.60;;;;;;5103360;28;20027;-70
2022/04/28 07:27:02;;;;;;;12.15;4.68;;;9.90;67.50;;;;;;5097782;28;20035;-70
2022/04/28 07:29:28;;;;;;;8.82;3.10;;;10.10;68.30;;;;;;5094668;28;20482;-70
2022/04/28 07:31:53;;;;;;;9.38;2.72;;;10.10;66.10;;;;;;5098071;28;20079;-70
2022/04/28 07:34:19;;;;;;;7.68;2.85;;;10.40;65.30;;;;;;5106693;28;20040;-70
2022/04/28 07:36:44;;;;;;;5.35;3.00;;;10.50;65.20;;;;;;5108324;28;20101;-71
2022/04/28 07:39:10;;;;;;;9.90;3.58;;;10.70;64.80;;;;;;5100069;28;20030;-70
2022/04/28 07:41:35;;;;;;;10.60;3.25;;;11.00;65.70;;;;;;5110407;28;20524;-70
2022/04/28 07:44:01;;;;;;;8.40;3.20;;;11.30;62.90;;;;;;5107430;28;20067;-68
2022/04/28 07:46:27;;;;;;;8.48;3.03;;;11.30;62.00;;;;;;5100364;28;20043;-69
2022/04/28 07:48:53;;;;;;;9.77;3.38;;;11.50;62.30;;;;;;5104333;28;20035;-69
2022/04/28 07:51:19;;;;;;;6.63;3.25;;;11.70;61.30;;;;;;5109023;28;20036;-69
2022/04/28 07:53:44;;;;;;;7.63;3.35;;;12.00;62.30;;;;;;5109832;28;20123;-68
2022/04/28 07:56:14;;;;;;;10.00;3.63;;;11.30;62.80;;;;;;5093972;28;20032;-68
2022/04/28 07:58:43;;;;;;;8.50;3.38;;;11.00;64.10;;;;;;5107694;28;20016;-68
2022/04/28 08:01:10;;;;;;;8.05;3.58;;;10.80;64.60;;;;;;5111227;28;20023;-68
2022/04/28 08:03:36;;;;;;;8.85;3.38;;;10.80;64.90;;;;;;5104413;28;20028;-68
2022/04/28 08:06:02;;;;;;;7.90;3.50;;;11.10;65.10;;;;;;5112609;28;20413;-68
2022/04/28 08:08:28;;;;;;;6.22;3.60;;;11.30;64.60;;;;;;5112635;28;20493;-70
2022/04/28 08:10:53;;;;;;;9.82;3.53;;;11.90;64.20;;;;;;5106443;28;20077;-71
2022/04/28 08:13:19;;;;;;;7.90;3.72;;;11.80;64.00;;;;;;5101234;28;20122;-70
2022/04/28 08:15:44;;;;;;;8.75;3.20;;;11.30;63.90;;;;;;5111497;28;20035;-70
2022/04/28 08:18:10;;;;;;;9.23;3.03;;;11.80;62.70;;;;;;5108441;28;20493;-68
2022/04/28 08:20:38;;;;;;;8.10;2.78;;;12.20;61.80;;;;;;5094875;28;20032;-68
2022/04/28 08:23:03;;;;;;;7.28;3.78;;;12.10;62.80;;;;;;5098090;28;20496;-68
2022/04/28 08:25:29;;;;;;;6.88;3.47;;;11.60;63.50;;;;;;5113157;28;20031;-68
2022/04/28 08:27:55;;;;;;;12.90;3.70;;;11.10;63.30;;;;;;5106091;28;20044;-68
2022/04/28 08:30:20;;;;;;;8.73;3.80;;;10.80;64.50;;;;;;5101886;28;20463;-68
2022/04/28 08:32:46;;;;;;;11.00;4.20;;;10.80;65.00;;;;;;5113914;28;20031;-69
2022/04/28 08:35:11;;;;;;;7.50;3.40;;;11.60;64.10;;;;;;5113856;28;20459;-69
2022/04/28 08:37:39;;;;;;;7.40;3.25;;;12.20;62.80;;;;;;5107195;28;20039;-69
2022/04/28 08:40:06;;;;;;;6.25;3.00;;;12.80;63.30;;;;;;5093232;28;20024;-68
2022/04/28 08:42:36;;;;;;;10.95;3.58;;;12.80;59.60;;;;;;5091631;28;20128;-68
2022/04/28 08:45:02;;;;;;;5.07;2.75;;;12.80;60.90;;;;;;5105350;28;20683;-69
2022/04/28 08:47:27;;;;;;;6.85;2.80;;;13.00;59.30;;;;;;5101703;28;20024;-69
2022/04/28 08:49:53;;;;;;;9.10;3.53;;;12.90;59.60;;;;;;5093047;28;20490;-69
2022/04/28 08:52:18;;;;;;;7.90;3.17;;;12.20;60.10;;;;;;5092481;28;20051;-68
2022/04/28 08:54:46;;;;;;;7.88;3.83;;;11.90;61.50;;;;;;5108968;28;20111;-68
2022/04/28 08:57:13;;;;;;;11.80;3.38;;;12.00;61.40;;;;;;5106749;28;20067;-68
2022/04/28 08:59:39;;;;;;;8.20;3.38;;;12.60;61.90;;;;;;5092762;28;20028;-68
2022/04/28 09:02:05;;;;;;;11.27;4.05;;;13.00;59.20;;;;;;5102812;28;20040;-69
2022/04/28 09:04:31;;;;;;;7.63;3.50;;;13.50;59.40;;;;;;5087981;28;20481;-68
2022/04/28 09:06:58;;;;;;;8.38;3.60;;;13.10;57.80;;;;;;5097076;28;20035;-69
2022/04/28 09:09:26;;;;;;;9.15;3.55;;;13.90;57.10;;;;;;5094683;28;20535;-69
2022/04/28 09:11:57;;;;;;;11.68;4.03;;;13.70;57.40;;;;;;5108948;28;20031;-69
2022/04/28 09:14:23;;;;;;;10.15;3.95;;;13.70;57.10;;;;;;5110416;28;20039;-68
2022/04/28 09:16:52;;;;;;;6.85;3.50;;;13.10;59.60;;;;;;5112005;28;20652;-69
2022/04/28 09:19:25;;;;;;;9.50;3.55;;;12.70;61.30;;;;;;5098044;28;20073;-68
2022/04/28 09:21:53;;;;;;;10.98;4.10;;;12.00;61.90;;;;;;5092544;28;20352;-68
2022/04/28 09:24:20;;;;;;;9.15;3.97;;;12.50;60.90;;;;;;5091831;28;20114;-69
2022/04/28 09:26:47;;;;;;;8.30;4.18;;;13.00;60.00;;;;;;5095042;28;20474;-68
2022/04/28 09:29:15;;;;;;;7.55;3.60;;;13.50;59.30;;;;;;5095400;28;20028;-69
2022/04/28 09:31:44;;;;;;;9.77;4.20;;;13.60;58.10;;;;;;5100149;28;20421;-68
2022/04/28 09:34:17;;;;;;;11.35;4.20;;;13.00;59.30;;;;;;5112710;28;20028;-68
2022/04/28 09:36:43;;;;;;;10.23;4.13;;;13.80;59.40;;;;;;5101349;28;20391;-68
2022/04/28 09:44:49;;;;;;;12.82;4.15;;;13.70;58.70;;;;;;5108369;28;20115;-69
2022/04/28 09:47:15;;;;;;;8.43;4.13;;;14.50;58.80;;;;;;5104159;28;20024;-68
2022/04/28 09:49:41;;;;;;;13.35;4.72;;;14.20;56.10;;;;;;5105343;28;20040;-68
2022/04/28 09:52:09;;;;;;;10.65;4.15;;;14.70;55.10;;;;;;5091558;28;20043;-69
2022/04/28 09:54:36;;;;;;;8.30;4.30;;;14.90;56.20;;;;;;5096560;28;20062;-68
2022/04/28 09:57:03;;;;;;;9.43;4.72;;;15.30;56.80;;;;;;5102248;28;20024;-69
2022/04/28 09:59:29;;;;;;;8.27;4.25;;;14.00;55.30;;;;;;5104968;28;20031;-68
2022/04/28 10:01:55;;;;;;;10.55;4.10;;;13.90;57.70;;;;;;5100558;28;20044;-69
2022/04/28 10:04:20;;;;;;;18.83;4.68;;;13.70;57.00;;;;;;5107620;28;20031;-68
2022/04/28 10:06:48;;;;;;;7.32;4.30;;;14.10;57.70;;;;;;5111844;28;20047;-68
2022/04/28 10:09:17;;;;;;;8.18;3.90;;;14.60;55.40;;;;;;5102685;28;20035;-69
2022/04/28 10:11:43;;;;;;;10.98;4.13;;;15.30;55.10;;;;;;5100158;28;20498;-69
2022/04/28 10:14:13;;;;;;;13.48;4.40;;;15.00;54.00;;;;;;5093116;28;20032;-69
2022/04/28 10:16:42;;;;;;;13.15;4.55;;;15.70;54.80;;;;;;5101857;28;20052;-68
2022/04/28 10:19:24;;;;;;;10.50;4.05;;;15.50;53.10;;;;;;5099404;28;20031;-69
2022/04/28 10:22:01;;;;;;;9.25;4.72;;;15.10;53.30;;;;;;5109172;28;20046;-68
2022/04/28 10:33:04;;;;;;;11.20;4.68;;;16.30;51.60;;;;;;5104971;28;20035;-69
2022/04/28 10:35:35;;;;;;;9.32;5.03;;;16.00;51.00;;;;;;5110870;28;20031;-69
2022/04/28 10:38:12;;;;;;;16.27;4.80;;;16.30;50.40;;;;;;5110212;28;20076;-69
2022/04/28 10:40:40;;;;;;;14.02;4.45;;;17.00;51.50;;;;;;5111232;28;20055;-69
2022/04/28 10:43:28;;;;;;;9.13;4.43;;;17.00;49.80;;;;;;5108397;28;20466;-69
2022/04/28 10:45:55;;;;;;;8.95;4.20;;;16.80;49.00;;;;;;5080104;28;20055;-69
2022/04/28 10:48:30;;;;;;;9.65;4.47;;;16.30;50.40;;;;;;5110189;28;20035;-69
2022/04/28 10:51:00;;;;;;;10.07;4.55;;;16.00;50.60;;;;;;5111053;28;20020;-69
2022/04/28 10:53:25;;;;;;;9.95;4.30;;;16.40;49.80;;;;;;5094772;28;20428;-70
2022/04/28 10:55:52;;;;;;;10.48;4.32;;;17.20;51.00;;;;;;5092527;28;20036;-70
2022/04/28 10:58:23;;;;;;;9.55;4.30;;;16.80;48.60;;;;;;5097429;28;20029;-70
2022/04/28 11:00:56;;;;;;;7.35;3.80;;;16.90;49.10;;;;;;5109938;28;20038;-70
2022/04/28 11:03:53;;;;;;;10.48;4.43;;;17.40;48.90;;;;;;5109279;28;20146;-70
2022/04/28 11:06:28;;;;;;;9.25;4.35;;;16.60;50.50;;;;;;5092731;28;20027;-70
2022/04/28 11:08:56;;;;;;;11.65;4.45;;;16.70;50.70;;;;;;5107705;28;20126;-70
2022/04/28 11:11:25;;;;;;;9.48;4.18;;;17.30;48.90;;;;;;5091008;28;20031;-70
2022/04/28 11:13:57;;;;;;;11.90;4.25;;;17.80;48.00;;;;;;5083640;28;20145;-70
2022/04/28 11:16:24;;;;;;;11.32;3.90;;;17.30;47.90;;;;;;5111930;28;20039;-71
2022/04/28 11:18:50;;;;;;;7.75;3.50;;;17.70;47.70;;;;;;5095537;28;20039;-71
2022/04/28 11:21:16;;;;;;;8.82;3.85;;;18.00;45.90;;;;;;5114604;28;20070;-71
2022/04/28 11:23:44;;;;;;;10.32;3.85;;;17.20;46.90;;;;;;5111916;28;20141;-71
2022/04/28 11:26:10;;;;;;;9.43;4.22;;;18.10;48.60;;;;;;5109527;28;20024;-71
2022/04/28 11:28:36;;;;;;;8.30;3.95;;;17.70;45.80;;;;;;5094963;28;20028;-71
2022/04/28 11:31:13;;;;;;;9.23;3.88;;;17.30;46.10;;;;;;5076951;28;20100;-71
2022/04/28 11:33:41;;;;;;;8.35;3.63;;;18.00;44.70;;;;;;5104924;28;20028;-69
2022/04/28 11:36:20;;;;;;;7.57;3.30;;;19.20;42.80;;;;;;5098717;28;20023;-68
2022/04/28 11:38:55;;;;;;;10.13;4.25;;;19.50;42.90;;;;;;5094186;28;20467;-68
2022/04/28 11:41:28;;;;;;;8.52;3.55;;;20.00;41.30;;;;;;5098428;28;20052;-69
2022/04/28 11:43:53;;;;;;;10.68;4.00;;;20.40;41.80;;;;;;5111598;28;20036;-69
2022/04/28 11:46:19;;;;;;;7.70;3.85;;;20.40;40.20;;;;;;5109150;28;20054;-69
2022/04/28 11:48:50;;;;;;;11.77;3.95;;;19.50;41.00;;;;;;5107440;28;20072;-69
2022/04/28 11:51:23;;;;;;;8.20;3.67;;;19.00;41.40;;;;;;5113832;28;20031;-69
2022/04/28 11:53:48;;;;;;;6.82;3.40;;;19.80;42.50;;;;;;5106852;28;20031;-69
2022/04/28 11:56:25;;;;;;;7.28;3.40;;;20.00;42.40;;;;;;5102459;28;20021;-69
2022/04/28 11:58:52;;;;;;;8.60;3.72;;;19.00;41.70;;;;;;5094093;28;20039;-68
2022/04/28 12:01:22;;;;;;;6.68;3.63;;;19.50;40.40;;;;;;5094853;28;20503;-69
2022/04/28 12:03:56;;;;;;;7.35;3.22;;;20.00;38.90;;;;;;5108975;28;20069;-69
2022/04/28 12:06:22;;;;;;;5.30;2.83;;;21.10;39.30;;;;;;5114824;28;20042;-69
2022/04/28 12:14:37;;;;;;;8.10;3.50;;;20.10;39.80;;;;;;5106906;28;20085;-69
2022/04/28 12:20:01;;;;;;;6.45;3.63;;;19.00;40.30;;;;;;5112285;28;20066;-69
2022/04/28 12:22:40;;;;;;;7.47;2.75;;;19.30;40.90;;;;;;5107056;28;20073;-70
2022/04/28 12:25:11;;;;;;;5.18;2.92;;;20.00;38.50;;;;;;5110567;28;20038;-70
2022/04/28 12:28:00;;;;;;;7.03;3.08;;;21.10;35.70;;;;;;5094724;28;20031;-70
2022/04/28 12:30:26;;;;;;;5.43;3.20;;;20.50;37.70;;;;;;5110969;28;20490;-70
2022/04/28 12:32:54;;;;;;;6.10;2.78;;;21.70;36.70;;;;;;5089453;28;20036;-70
2022/04/28 12:35:25;;;;;;;10.10;3.15;;;21.40;36.70;;;;;;5104550;28;20023;-69
2022/04/28 12:38:00;;;;;;;6.68;3.38;;;21.00;37.10;;;;;;5103108;28;20032;-69
2022/04/28 12:40:26;;;;;;;7.03;3.15;;;19.80;39.20;;;;;;5107192;28;20446;-69
2022/04/28 12:42:53;;;;;;;6.70;3.80;;;19.10;42.00;;;;;;5111308;28;20035;-69
2022/04/28 12:45:42;;;;;;;8.75;3.85;;;19.50;40.90;;;;;;5113152;28;20020;-69
2022/04/28 12:48:34;;;;;;;9.45;3.40;;;19.90;40.00;;;;;;5110356;28;20056;-70
2022/04/28 12:51:11;;;;;;;8.05;4.13;;;20.40;39.20;;;;;;5095696;28;20673;-69
2022/04/28 12:53:40;;;;;;;11.52;4.15;;;20.00;41.60;;;;;;5104996;27;20028;-69
2022/04/28 12:56:14;;;;;;;7.53;4.10;;;20.30;40.20;;;;;;5105223;28;20039;-69
2022/04/28 12:58:43;;;;;;;6.88;3.85;;;19.40;39.80;;;;;;5101299;28;20027;-71
2022/04/28 13:01:15;;;;;;;10.55;3.80;;;20.30;39.20;;;;;;5099161;28;20028;-71
2022/04/28 13:03:41;;;;;;;7.50;4.07;;;20.90;39.30;;;;;;5089244;28;20038;-71
2022/04/28 13:06:08;;;;;;;9.70;4.47;;;20.70;40.50;;;;;;5089090;28;20024;-72
2022/04/28 13:08:34;;;;;;;7.13;4.03;;;21.40;41.40;;;;;;5095245;28;20028;-71
2022/04/28 13:11:01;;;;;;;7.82;4.82;;;21.10;39.30;;;;;;5103793;28;20539;-70
2022/04/28 13:13:27;;;;;;;9.57;4.97;;;19.50;41.60;;;;;;5096264;28;20370;-71
2022/04/28 13:15:53;;;;;;;9.98;5.47;;;18.20;45.10;;;;;;5095106;28;20637;-69
2022/04/28 13:18:18;;;;;;;8.68;5.22;;;18.80;44.20;;;;;;5098575;28;20035;-70
2022/04/28 13:20:44;;;;;;;9.38;4.90;;;20.00;43.20;;;;;;5093660;28;20045;-70